Arrow — CRXN — position and weather

sailwx.info

Track history (hours):
 
Tides and Currents Weather Stations Pressure Air Temp Water Temp Dewpoint Dewpoint Depression Visibility Wind Speed Wind Dir Waves Ship Positions

Arrow

Last reported at 2015-Sep-01 12:15 UTC. Time now 2015-Sep-04 12:30 UTC.
Position N 37°24' E 004°33'.

Length 126 m; draft 5.4 m.

Type: Cargo ship. MMSI: 255797000.

Date/timePositionNaut miles runAvg speedWind from/ knotsBaromVisibWave heightAir tempDewpointWater temp
2015-Sep-01 12:15N 37°24' E 004°33'1 0.8
2015-Sep-01 11:32N 37°24' E 004°33'5 0.4
2015-Aug-31 23:15N 37°28' E 004°37'0 0.7
2015-Aug-31 22:33N 37°28' E 004°37'1 0.7
2015-Aug-31 21:33N 37°28' E 004°38'1 0.6
2015-Aug-31 20:33N 37°28' E 004°39'1 0.5
2015-Aug-31 19:18N 37°28' E 004°40'0 0.4
2015-Aug-31 18:28N 37°28' E 004°40'0 0.4
2015-Aug-31 17:33N 37°29' E 004°41'0 0.4
2015-Aug-31 16:33N 37°29' E 004°41'2 0.4
2015-Aug-31 10:12N 37°30' E 004°43'1 0.8
2015-Aug-31 09:08N 37°30' E 004°44'1 0.9
2015-Aug-31 08:27N 37°30' E 004°45'7 0.9
2015-Aug-31 00:34N 37°36' E 004°49'1 0.6
2015-Aug-30 23:32N 37°36' E 004°50'0 0.5
2015-Aug-30 22:33N 37°37' E 004°50'4 0.5
2015-Aug-30 14:33N 37°38' E 004°55'1 0.6
2015-Aug-30 13:20N 37°37' E 004°55'2 0.9
2015-Aug-30 11:33N 37°36' E 004°57'1 0.9
2015-Aug-30 10:33N 37°36' E 004°58'4 0.7
2015-Aug-30 05:32N 37°36' E 005°02'1 0.7
2015-Aug-30 04:31N 37°36' E 005°03'1 0.6
2015-Aug-30 03:14N 37°36' E 005°04'8 1.5
2015-Aug-29 22:08N 37°28' E 005°07'  
Track history (hours):
 
Tides and Currents Weather Stations Pressure Air Temp Water Temp Dewpoint Dewpoint Depression Visibility Wind Speed Wind Dir Waves Ship Positions

Arrow

Last reported at 2015-Sep-01 12:15 UTC. Time now 2015-Sep-04 12:30 UTC.
Position N 37°24' E 004°33'.

Length 126 m; draft 5.4 m.

Type: Cargo ship. MMSI: 255797000.

Date/timePositionNaut miles runAvg speedWind from/ knotsBaromVisibWave heightAir tempDewpointWater temp
2015-Sep-01 12:15N 37°24' E 004°33'1 0.8
2015-Sep-01 11:32N 37°24' E 004°33'5 0.4
2015-Aug-31 23:15N 37°28' E 004°37'0 0.7
2015-Aug-31 22:33N 37°28' E 004°37'1 0.7
2015-Aug-31 21:33N 37°28' E 004°38'1 0.6
2015-Aug-31 20:33N 37°28' E 004°39'1 0.5
2015-Aug-31 19:18N 37°28' E 004°40'0 0.4
2015-Aug-31 18:28N 37°28' E 004°40'0 0.4
2015-Aug-31 17:33N 37°29' E 004°41'0 0.4
2015-Aug-31 16:33N 37°29' E 004°41'2 0.4
2015-Aug-31 10:12N 37°30' E 004°43'1 0.8
2015-Aug-31 09:08N 37°30' E 004°44'1 0.9
2015-Aug-31 08:27N 37°30' E 004°45'7 0.9
2015-Aug-31 00:34N 37°36' E 004°49'1 0.6
2015-Aug-30 23:32N 37°36' E 004°50'0 0.5
2015-Aug-30 22:33N 37°37' E 004°50'4 0.5
2015-Aug-30 14:33N 37°38' E 004°55'1 0.6
2015-Aug-30 13:20N 37°37' E 004°55'2 0.9
2015-Aug-30 11:33N 37°36' E 004°57'1 0.9
2015-Aug-30 10:33N 37°36' E 004°58'4 0.7
2015-Aug-30 05:32N 37°36' E 005°02'1 0.7
2015-Aug-30 04:31N 37°36' E 005°03'1 0.6
2015-Aug-30 03:14N 37°36' E 005°04'8 1.5
2015-Aug-29 22:08N 37°28' E 005°07'  

Dump ship's entire track history